createdAt,value
2024-03-26T00:00:55.311Z,99.99
2024-03-26T00:01:55.290Z,99.99
2024-03-26T00:02:55.309Z,99.99
2024-03-26T00:03:55.254Z,99.99
2024-03-26T00:04:55.290Z,99.99
2024-03-26T00:05:55.203Z,99.99
2024-03-26T00:06:55.220Z,99.99
2024-03-26T00:07:55.226Z,99.99
2024-03-26T00:08:55.196Z,99.99
2024-03-26T00:09:55.196Z,99.99
2024-03-26T00:10:55.194Z,99.99
2024-03-26T00:11:55.162Z,99.99
2024-03-26T00:12:55.155Z,99.99
2024-03-26T00:13:55.153Z,99.99
2024-03-26T00:14:55.140Z,99.99
2024-03-26T00:15:55.127Z,99.99
2024-03-26T00:16:55.145Z,99.99
2024-03-26T00:17:55.065Z,99.99
2024-03-26T00:18:55.093Z,99.99
2024-03-26T00:19:55.105Z,99.99
2024-03-26T00:20:55.076Z,99.99
2024-03-26T00:21:55.060Z,99.99
2024-03-26T00:22:55.025Z,99.99
2024-03-26T00:23:55.030Z,99.99
2024-03-26T00:24:55.047Z,99.99
2024-03-26T00:25:55.023Z,99.99
2024-03-26T00:26:55.004Z,99.99
2024-03-26T00:27:54.992Z,99.99
2024-03-26T00:28:54.957Z,99.99
2024-03-26T00:29:54.964Z,99.99
2024-03-26T00:30:54.975Z,99.99
2024-03-26T00:31:54.950Z,99.99
2024-03-26T00:32:54.920Z,99.99
2024-03-26T00:33:54.908Z,99.99
2024-03-26T00:34:54.914Z,99.99
2024-03-26T00:35:54.901Z,99.99
2024-03-26T00:36:54.906Z,99.99
2024-03-26T00:37:54.870Z,99.99
2024-03-26T00:38:54.867Z,99.99
2024-03-26T00:39:54.864Z,99.99
2024-03-26T00:40:54.837Z,99.99
2024-03-26T00:41:54.829Z,99.99
2024-03-26T00:42:54.818Z,99.99
2024-03-26T00:43:54.800Z,99.99
2024-03-26T00:44:54.819Z,99.99
2024-03-26T00:45:54.789Z,99.99
2024-03-26T00:46:54.774Z,99.99
2024-03-26T00:47:54.770Z,99.99
2024-03-26T00:48:54.779Z,99.99
2024-03-26T00:49:54.760Z,99.99
2024-03-26T00:50:54.728Z,99.99
2024-03-26T00:51:54.709Z,99.99
2024-03-26T00:52:54.714Z,99.99
2024-03-26T00:53:54.699Z,99.99
2024-03-26T00:54:54.706Z,99.99
2024-03-26T00:55:54.682Z,99.99
2024-03-26T00:56:54.673Z,99.99
2024-03-26T00:57:54.662Z,99.99
2024-03-26T00:58:54.640Z,99.99
2024-03-26T00:59:54.632Z,99.99
2024-03-26T01:00:54.616Z,99.99
2024-03-26T01:01:54.639Z,99.99
2024-03-26T01:02:54.602Z,99.99
2024-03-26T01:03:54.579Z,99.99
2024-03-26T01:04:54.586Z,99.99
2024-03-26T01:05:54.565Z,99.99
2024-03-26T01:06:54.558Z,99.99
2024-03-26T01:07:54.558Z,99.99
2024-03-26T01:08:54.533Z,99.99
2024-03-26T01:09:54.516Z,99.99
2024-03-26T01:10:54.526Z,99.99
2024-03-26T01:11:54.523Z,99.99
2024-03-26T01:12:54.523Z,99.99
2024-03-26T01:13:54.478Z,99.99
2024-03-26T01:14:54.482Z,99.99
2024-03-26T01:15:54.456Z,99.99
2024-03-26T01:16:54.460Z,99.99
2024-03-26T01:17:54.433Z,99.99
2024-03-26T01:18:54.433Z,99.99
2024-03-26T01:19:54.413Z,99.99
2024-03-26T01:20:54.399Z,99.99
2024-03-26T01:21:54.390Z,99.99
2024-03-26T01:22:54.407Z,99.99
2024-03-26T01:23:54.375Z,99.99
2024-03-26T01:24:54.366Z,99.99
2024-03-26T01:25:54.343Z,99.99
2024-03-26T01:26:54.343Z,99.99
2024-03-26T01:27:54.324Z,99.99
2024-03-26T01:28:54.335Z,99.99
2024-03-26T01:29:54.288Z,99.99
2024-03-26T01:30:54.290Z,99.99
2024-03-26T01:31:54.277Z,99.99
2024-03-26T01:32:54.299Z,99.99
2024-03-26T01:33:54.252Z,99.99
2024-03-26T01:34:54.254Z,99.99
2024-03-26T01:35:54.249Z,99.99
2024-03-26T01:36:54.222Z,99.99
2024-03-26T01:37:54.212Z,99.99
2024-03-26T01:38:54.187Z,99.99
2024-03-26T01:39:54.167Z,99.99
2024-03-26T01:40:54.173Z,99.99
2024-03-26T01:41:54.158Z,99.99
2024-03-26T01:42:54.152Z,99.99
2024-03-26T01:43:54.132Z,99.99
2024-03-26T01:44:54.126Z,99.99
2024-03-26T01:45:54.126Z,99.99
2024-03-26T01:46:54.118Z,99.99
2024-03-26T01:47:54.109Z,99.99
2024-03-26T01:48:54.090Z,99.99
2024-03-26T01:49:54.079Z,99.99
2024-03-26T01:50:54.083Z,99.99
2024-03-26T01:51:54.047Z,99.99
2024-03-26T01:52:54.062Z,99.99
2024-03-26T01:53:54.033Z,99.99
2024-03-26T01:54:54.017Z,99.99
2024-03-26T01:55:54.010Z,99.99
2024-03-26T01:56:54.013Z,99.99
2024-03-26T01:57:53.995Z,99.99
2024-03-26T01:58:53.986Z,99.99
2024-03-26T01:59:53.982Z,99.99
2024-03-26T02:00:53.948Z,99.99
2024-03-26T02:01:53.962Z,99.99
2024-03-26T02:02:53.951Z,99.99
2024-03-26T02:03:53.921Z,99.99
2024-03-26T02:04:53.900Z,99.99
2024-03-26T02:05:53.907Z,99.99
2024-03-26T02:06:53.880Z,99.99
2024-03-26T02:07:53.873Z,99.99
2024-03-26T02:08:53.865Z,99.99
2024-03-26T02:09:53.853Z,99.99
2024-03-26T02:10:53.854Z,99.99
2024-03-26T02:11:53.837Z,99.99
2024-03-26T02:12:53.818Z,99.99
2024-03-26T02:13:53.805Z,99.99
2024-03-26T02:14:53.811Z,99.99
2024-03-26T02:15:53.791Z,99.99
2024-03-26T02:16:53.763Z,99.99
2024-03-26T02:17:53.793Z,99.99
2024-03-26T02:18:53.723Z,99.99
2024-03-26T02:19:53.747Z,99.99
2024-03-26T02:20:53.735Z,99.99
2024-03-26T02:21:53.736Z,99.99
2024-03-26T02:22:53.729Z,99.99
2024-03-26T02:23:53.707Z,99.99
2024-03-26T02:24:53.687Z,99.99
2024-03-26T02:25:53.664Z,99.99
2024-03-26T02:26:53.658Z,99.99
2024-03-26T02:27:53.648Z,99.99
2024-03-26T02:28:53.631Z,99.99
2024-03-26T02:29:53.625Z,99.99
2024-03-26T02:30:53.622Z,99.99
2024-03-26T02:31:53.627Z,99.99
2024-03-26T02:32:53.580Z,99.99
2024-03-26T02:33:53.605Z,99.99
2024-03-26T02:34:53.592Z,99.99
2024-03-26T02:35:53.565Z,99.99
2024-03-26T02:36:53.568Z,99.99
2024-03-26T02:37:53.553Z,99.99
2024-03-26T02:38:53.547Z,99.99
2024-03-26T02:39:53.537Z,99.99
2024-03-26T02:40:53.499Z,99.99
2024-03-26T02:41:53.536Z,99.99
2024-03-26T02:42:53.491Z,99.99
2024-03-26T02:43:53.467Z,99.99
2024-03-26T02:44:53.487Z,99.99
2024-03-26T02:45:53.467Z,99.99
2024-03-26T02:46:53.440Z,99.99
2024-03-26T02:47:53.430Z,99.99
2024-03-26T02:48:53.461Z,99.99
2024-03-26T02:49:53.419Z,99.99
2024-03-26T02:50:53.401Z,99.99
2024-03-26T02:51:53.378Z,99.99
2024-03-26T02:52:53.397Z,99.99
2024-03-26T02:53:53.369Z,99.99
2024-03-26T02:54:53.362Z,99.99
2024-03-26T02:55:53.361Z,99.99
2024-03-26T02:56:53.346Z,99.99
2024-03-26T02:57:53.326Z,99.99
2024-03-26T02:58:53.303Z,99.99
2024-03-26T02:59:53.309Z,99.99
2024-03-26T03:00:53.301Z,99.99
2024-03-26T03:01:53.319Z,99.99
2024-03-26T03:02:53.306Z,99.99
2024-03-26T03:03:53.261Z,99.99
2024-03-26T03:04:53.224Z,99.99
2024-03-26T03:05:53.219Z,99.99
2024-03-26T03:06:53.206Z,99.99
2024-03-26T03:07:53.213Z,99.99
2024-03-26T03:08:53.190Z,99.99
2024-03-26T03:09:53.189Z,99.99
2024-03-26T03:10:53.185Z,99.99
2024-03-26T03:11:53.177Z,99.99
2024-03-26T03:12:53.128Z,99.99
2024-03-26T03:13:53.167Z,99.99
2024-03-26T03:14:53.139Z,99.99
2024-03-26T03:15:53.111Z,99.99
2024-03-26T03:16:53.113Z,99.99
2024-03-26T03:17:53.116Z,99.99
2024-03-26T03:18:53.080Z,99.99
2024-03-26T03:19:53.083Z,99.99
2024-03-26T03:20:53.074Z,99.99
2024-03-26T03:21:53.048Z,99.99
2024-03-26T03:22:53.048Z,99.99
2024-03-26T03:23:53.011Z,99.99
2024-03-26T03:24:53.016Z,99.99
2024-03-26T03:25:53.055Z,99.99
2024-03-26T03:26:53.005Z,99.99
2024-03-26T03:27:52.975Z,99.99
2024-03-26T03:28:52.979Z,99.99
2024-03-26T03:29:52.962Z,99.99
2024-03-26T03:30:52.944Z,99.99
2024-03-26T03:31:52.949Z,99.99
2024-03-26T03:32:52.934Z,99.99
2024-03-26T03:33:52.926Z,99.99
2024-03-26T03:34:52.901Z,99.99
2024-03-26T03:35:52.910Z,99.99
2024-03-26T03:36:52.899Z,99.99
2024-03-26T03:37:52.894Z,99.99
2024-03-26T03:38:52.864Z,99.99
2024-03-26T03:39:52.875Z,99.99
2024-03-26T03:40:52.847Z,99.99
2024-03-26T03:41:52.848Z,99.99
2024-03-26T03:42:52.824Z,99.99
2024-03-26T03:43:52.821Z,99.99
2024-03-26T03:44:52.812Z,99.99
2024-03-26T03:45:52.792Z,99.99
2024-03-26T03:46:52.777Z,99.99
2024-03-26T03:47:52.780Z,99.99
2024-03-26T03:48:52.766Z,99.99
2024-03-26T03:49:52.755Z,99.99
2024-03-26T03:50:52.730Z,99.99
2024-03-26T03:51:52.732Z,99.99
2024-03-26T03:52:52.710Z,99.99
2024-03-26T03:53:54.416Z,99.99
2024-03-26T03:54:52.723Z,99.99
2024-03-26T03:55:52.689Z,99.99
2024-03-26T03:56:52.642Z,99.99
2024-03-26T03:57:52.668Z,99.99
2024-03-26T03:58:52.638Z,99.99
2024-03-26T03:59:52.636Z,99.99
2024-03-26T04:00:52.629Z,99.99
2024-03-26T04:01:52.607Z,99.99
2024-03-26T04:02:52.619Z,99.99
2024-03-26T04:03:52.605Z,99.99
2024-03-26T04:04:52.581Z,99.99
2024-03-26T04:05:52.591Z,99.99
2024-03-26T04:06:52.578Z,99.99
2024-03-26T04:07:52.547Z,99.99
2024-03-26T04:08:52.545Z,99.99
2024-03-26T04:09:52.517Z,99.99
2024-03-26T04:10:52.507Z,99.99
2024-03-26T04:11:54.490Z,99.99
2024-03-26T04:12:52.502Z,99.99
2024-03-26T04:13:52.498Z,99.99
2024-03-26T04:14:52.457Z,99.99
2024-03-26T04:15:52.453Z,99.99
2024-03-26T04:16:52.447Z,99.99
2024-03-26T04:17:52.434Z,99.99
2024-03-26T04:18:52.467Z,99.99
2024-03-26T04:19:52.413Z,99.99
2024-03-26T04:20:52.397Z,99.99
2024-03-26T04:21:52.374Z,99.99
2024-03-26T04:22:52.366Z,99.99
2024-03-26T04:23:52.352Z,99.99
2024-03-26T04:24:52.342Z,99.99
2024-03-26T04:25:52.353Z,99.99
2024-03-26T04:26:52.317Z,99.99
2024-03-26T04:27:52.309Z,99.99
2024-03-26T04:28:52.312Z,99.99
2024-03-26T04:29:52.343Z,99.99
2024-03-26T04:30:52.303Z,99.99
2024-03-26T04:31:52.292Z,99.99
2024-03-26T04:32:52.311Z,99.99
2024-03-26T04:33:52.261Z,99.99
2024-03-26T04:34:52.242Z,99.99
2024-03-26T04:35:52.254Z,99.99
2024-03-26T04:36:52.219Z,99.99
2024-03-26T04:37:52.214Z,99.99
2024-03-26T04:38:52.248Z,99.99
2024-03-26T04:39:52.192Z,99.99
2024-03-26T04:40:52.170Z,99.99
2024-03-26T04:41:52.218Z,99.99
2024-03-26T04:42:52.166Z,99.99
2024-03-26T04:43:52.140Z,99.99
2024-03-26T04:44:52.169Z,99.99
2024-03-26T04:45:53.709Z,99.99
2024-03-26T04:46:52.126Z,99.99
2024-03-26T04:47:52.127Z,99.99
2024-03-26T04:48:52.085Z,99.99
2024-03-26T04:49:52.096Z,99.99
2024-03-26T04:50:52.074Z,99.99
2024-03-26T04:51:52.053Z,99.99
2024-03-26T04:52:52.054Z,99.99
2024-03-26T04:53:52.072Z,99.99
2024-03-26T04:54:52.020Z,99.99
2024-03-26T04:55:52.017Z,99.99
2024-03-26T04:56:52.034Z,99.99
2024-03-26T04:57:52.001Z,99.99
2024-03-26T04:58:51.974Z,99.99
2024-03-26T04:59:51.997Z,99.99
2024-03-26T05:00:51.976Z,99.99
2024-03-26T05:01:51.978Z,99.99
2024-03-26T05:02:51.967Z,99.99
2024-03-26T05:03:51.925Z,99.99
2024-03-26T05:04:51.908Z,99.99
2024-03-26T05:05:51.930Z,99.99
2024-03-26T05:06:51.896Z,99.99
2024-03-26T05:07:51.894Z,99.99
2024-03-26T05:08:51.890Z,99.99
2024-03-26T05:09:51.852Z,99.99
2024-03-26T05:10:51.857Z,99.99
2024-03-26T05:11:51.866Z,99.99
2024-03-26T05:12:51.823Z,99.99
2024-03-26T05:13:51.829Z,99.99
2024-03-26T05:14:51.830Z,99.99
2024-03-26T05:15:51.830Z,99.99
2024-03-26T05:16:51.756Z,99.99
2024-03-26T05:17:51.787Z,99.99
2024-03-26T05:18:51.753Z,99.99
2024-03-26T05:19:51.753Z,99.99
2024-03-26T05:20:51.784Z,99.99
2024-03-26T05:21:51.722Z,99.99
2024-03-26T05:22:51.702Z,99.99
2024-03-26T05:23:51.731Z,99.99
2024-03-26T05:24:51.679Z,99.99
2024-03-26T05:25:51.681Z,99.99
2024-03-26T05:26:51.674Z,99.99
2024-03-26T05:27:51.643Z,99.99
2024-03-26T05:28:51.929Z,99.99
2024-03-26T05:29:51.682Z,99.99
2024-03-26T05:30:51.576Z,99.99
2024-03-26T05:31:51.614Z,99.99
2024-03-26T05:32:51.633Z,99.99
2024-03-26T05:33:51.590Z,99.99
2024-03-26T05:34:51.585Z,99.99
2024-03-26T05:35:51.584Z,99.99
2024-03-26T05:36:51.537Z,99.99
2024-03-26T05:37:51.557Z,99.99
2024-03-26T05:38:51.584Z,99.99
2024-03-26T05:39:51.549Z,99.99
2024-03-26T05:40:51.542Z,99.99
2024-03-26T05:41:51.529Z,99.99
2024-03-26T05:42:51.496Z,99.99
2024-03-26T05:43:51.491Z,99.99
2024-03-26T05:44:51.480Z,99.99
2024-03-26T05:45:51.448Z,99.99
2024-03-26T05:46:51.459Z,99.99
2024-03-26T05:47:51.457Z,99.99
2024-03-26T05:48:51.399Z,99.99
2024-03-26T05:49:51.402Z,99.99
2024-03-26T05:50:51.482Z,99.99
2024-03-26T05:51:51.371Z,99.99
2024-03-26T05:52:51.379Z,99.99
2024-03-26T05:53:51.378Z,99.99
2024-03-26T05:54:51.367Z,99.99
2024-03-26T05:55:51.340Z,99.99
2024-03-26T05:56:51.349Z,99.99
2024-03-26T05:57:51.325Z,99.99
2024-03-26T05:58:51.319Z,99.99
2024-03-26T05:59:51.351Z,99.99
2024-03-26T06:00:51.301Z,99.99
2024-03-26T06:01:51.289Z,99.99
2024-03-26T06:02:51.274Z,99.99
2024-03-26T06:03:51.256Z,99.99
2024-03-26T06:04:51.280Z,99.99
2024-03-26T06:05:51.264Z,99.99
2024-03-26T06:06:51.247Z,99.99
2024-03-26T06:07:51.211Z,99.99
2024-03-26T06:08:51.216Z,99.99
2024-03-26T06:09:51.188Z,99.99
2024-03-26T06:10:51.189Z,99.99
2024-03-26T06:11:51.175Z,99.99
2024-03-26T06:12:51.154Z,99.99
2024-03-26T06:13:51.124Z,99.99
2024-03-26T06:14:51.141Z,99.99
2024-03-26T06:15:51.102Z,99.99
2024-03-26T06:16:51.112Z,99.99
2024-03-26T06:17:51.134Z,99.99
2024-03-26T06:18:51.078Z,99.99
2024-03-26T06:19:51.067Z,99.99
2024-03-26T06:20:51.077Z,99.99
2024-03-26T06:21:51.047Z,99.99
2024-03-26T06:22:51.054Z,99.99
2024-03-26T06:23:51.077Z,99.99
2024-03-26T06:24:51.019Z,99.99
2024-03-26T06:25:51.022Z,99.99
2024-03-26T06:26:51.006Z,99.99
2024-03-26T06:27:50.990Z,99.99
2024-03-26T06:28:50.994Z,99.99
2024-03-26T06:29:50.965Z,99.99
2024-03-26T06:30:50.959Z,99.99
2024-03-26T06:31:50.949Z,99.99
2024-03-26T06:32:50.935Z,99.99
2024-03-26T06:33:50.911Z,99.99
2024-03-26T06:34:50.890Z,99.95
2024-03-26T06:35:50.886Z,99.99
2024-03-26T06:36:50.899Z,99.91
2024-03-26T06:37:50.903Z,99.70
2024-03-26T06:38:50.869Z,99.91
2024-03-26T06:39:50.871Z,99.91
2024-03-26T06:40:50.845Z,99.70
2024-03-26T06:41:50.844Z,99.70
2024-03-26T06:42:50.821Z,99.59
2024-03-26T06:43:50.802Z,99.55
2024-03-26T06:44:50.837Z,99.65
2024-03-26T06:45:50.807Z,99.55
2024-03-26T06:46:50.775Z,99.55
2024-03-26T06:47:50.771Z,99.65
2024-03-26T06:48:50.757Z,99.55
2024-03-26T06:49:50.743Z,99.55
2024-03-26T06:50:50.737Z,99.44
2024-03-26T06:51:50.743Z,98.93
2024-03-26T06:52:50.721Z,98.82
2024-03-26T06:53:50.709Z,98.99
2024-03-26T06:54:50.691Z,98.99
2024-03-26T06:55:50.678Z,99.19
2024-03-26T06:56:50.708Z,99.19
2024-03-26T06:57:50.652Z,98.99
2024-03-26T06:58:50.645Z,98.88
2024-03-26T06:59:50.635Z,98.83
2024-03-26T07:00:50.632Z,98.73
2024-03-26T07:01:50.602Z,98.42
2024-03-26T07:02:50.595Z,98.21
2024-03-26T07:03:50.596Z,98.21
2024-03-26T07:04:50.582Z,98.11
2024-03-26T07:05:50.608Z,98.11
2024-03-26T07:06:50.559Z,97.90
2024-03-26T07:07:50.543Z,97.80
2024-03-26T07:08:50.521Z,97.80
2024-03-26T07:09:50.513Z,97.96
2024-03-26T07:10:50.479Z,97.86
2024-03-26T07:11:50.549Z,97.96
2024-03-26T07:12:50.489Z,98.17
2024-03-26T07:13:50.456Z,98.48
2024-03-26T07:14:50.584Z,98.69
2024-03-26T07:15:50.449Z,98.90
2024-03-26T07:16:50.452Z,98.85
2024-03-26T07:17:50.425Z,99.05
2024-03-26T07:18:52.320Z,99.16
2024-03-26T07:19:50.399Z,99.05
2024-03-26T07:20:50.401Z,98.74
2024-03-26T07:21:50.396Z,98.28
2024-03-26T07:22:50.373Z,97.66
2024-03-26T07:23:50.361Z,97.14
2024-03-26T07:24:50.320Z,96.83
2024-03-26T07:25:50.330Z,96.94
2024-03-26T07:26:50.326Z,96.94
2024-03-26T07:27:50.295Z,96.94
2024-03-26T07:28:50.311Z,96.83
2024-03-26T07:29:50.287Z,96.62
2024-03-26T07:30:50.331Z,95.90
2024-03-26T07:31:50.252Z,95.28
2024-03-26T07:32:50.257Z,95.18
2024-03-26T07:33:50.238Z,94.76
2024-03-26T07:34:50.234Z,94.76
2024-03-26T07:35:50.210Z,94.97
2024-03-26T07:36:50.205Z,95.65
2024-03-26T07:37:50.171Z,95.96
2024-03-26T07:38:50.197Z,95.96
2024-03-26T07:39:50.189Z,95.24
2024-03-26T07:40:50.191Z,95.44
2024-03-26T07:41:50.184Z,95.34
2024-03-26T07:42:50.165Z,94.51
2024-03-26T07:43:50.129Z,94.62
2024-03-26T07:44:50.124Z,94.78
2024-03-26T07:45:50.114Z,94.98
2024-03-26T07:46:50.125Z,94.47
2024-03-26T07:47:50.094Z,93.74
2024-03-26T07:48:50.081Z,93.23
2024-03-26T07:49:50.092Z,92.09
2024-03-26T07:50:50.101Z,91.22
2024-03-26T07:51:50.055Z,91.84
2024-03-26T07:52:50.040Z,91.74
2024-03-26T07:53:50.074Z,92.05
2024-03-26T07:54:50.037Z,92.25
2024-03-26T07:55:50.016Z,92.63
2024-03-26T07:56:50.027Z,91.49
2024-03-26T07:57:49.975Z,92.11
2024-03-26T07:58:49.959Z,91.28
2024-03-26T07:59:50.035Z,90.56
2024-03-26T08:00:50.007Z,90.66
2024-03-26T08:01:49.927Z,89.73
2024-03-26T08:02:49.998Z,88.07
2024-03-26T08:03:49.889Z,88.04
2024-03-26T08:04:49.946Z,88.14
2024-03-26T08:05:49.858Z,88.96
2024-03-26T08:06:49.886Z,88.71
2024-03-26T08:07:49.929Z,88.10
2024-03-26T08:08:49.869Z,87.37
2024-03-26T08:09:49.847Z,86.96
2024-03-26T08:10:49.872Z,87.07
2024-03-26T08:11:49.891Z,87.17
2024-03-26T08:12:49.995Z,86.30
2024-03-26T08:13:49.812Z,85.68
2024-03-26T08:14:49.780Z,85.99
2024-03-26T08:15:49.797Z,86.20
2024-03-26T08:16:49.749Z,86.30
2024-03-26T08:17:49.752Z,85.68
2024-03-26T08:18:49.799Z,85.33
2024-03-26T08:19:49.807Z,85.23
2024-03-26T08:20:49.763Z,85.23
2024-03-26T08:21:49.717Z,85.13
2024-03-26T08:22:49.815Z,84.99
2024-03-26T08:23:49.751Z,85.71
2024-03-26T08:24:49.673Z,85.60
2024-03-26T08:25:49.722Z,85.60
2024-03-26T08:26:49.634Z,85.30
2024-03-26T08:27:49.645Z,83.95
2024-03-26T08:28:49.632Z,84.22
2024-03-26T08:29:49.625Z,83.40
2024-03-26T08:30:49.586Z,82.78
2024-03-26T08:31:49.598Z,82.26
2024-03-26T08:32:49.587Z,83.15
2024-03-26T08:33:49.575Z,85.63
2024-03-26T08:34:49.565Z,85.11
2024-03-26T08:35:49.572Z,84.70
2024-03-26T08:36:49.511Z,84.29
2024-03-26T08:37:49.606Z,84.87
2024-03-26T08:38:49.537Z,84.35
2024-03-26T08:39:49.551Z,83.12
2024-03-26T08:40:49.520Z,81.88
2024-03-26T08:41:49.481Z,79.68
2024-03-26T08:42:49.455Z,79.68
2024-03-26T08:43:49.498Z,80.61
2024-03-26T08:44:49.430Z,79.44
2024-03-26T08:45:49.420Z,78.51
2024-03-26T08:46:49.413Z,78.72
2024-03-26T08:47:49.392Z,79.75
2024-03-26T08:48:49.392Z,78.68
2024-03-26T08:49:49.393Z,79.30
2024-03-26T08:50:49.368Z,78.47
2024-03-26T08:51:51.011Z,78.47
2024-03-26T08:52:49.360Z,78.75
2024-03-26T08:53:49.351Z,78.54
2024-03-26T08:54:49.344Z,77.31
2024-03-26T08:55:49.326Z,78.23
2024-03-26T08:56:49.306Z,77.10
2024-03-26T08:57:49.298Z,77.58
2024-03-26T08:58:49.300Z,77.06
2024-03-26T08:59:49.293Z,76.65
2024-03-26T09:00:49.261Z,76.97
2024-03-26T09:01:49.241Z,76.82
2024-03-26T09:02:49.239Z,77.03
2024-03-26T09:03:49.253Z,76.00
2024-03-26T09:04:49.224Z,75.49
2024-03-26T09:05:49.187Z,76.38
2024-03-26T09:06:49.179Z,75.35
2024-03-26T09:07:49.179Z,76.45
2024-03-26T09:08:49.160Z,76.24
2024-03-26T09:09:49.156Z,74.91
2024-03-26T09:10:49.135Z,72.82
2024-03-26T09:11:49.108Z,74.46
2024-03-26T09:12:49.152Z,72.82
2024-03-26T09:13:49.121Z,72.92
2024-03-26T09:14:49.095Z,72.78
2024-03-26T09:15:49.101Z,74.53
2024-03-26T09:16:49.094Z,72.68
2024-03-26T09:17:49.099Z,71.11
2024-03-26T09:18:49.060Z,71.52
2024-03-26T09:19:49.060Z,70.70
2024-03-26T09:20:49.034Z,71.59
2024-03-26T09:21:49.028Z,72.61
2024-03-26T09:22:49.025Z,71.80
2024-03-26T09:23:49.625Z,71.90
2024-03-26T09:25:48.953Z,69.51
2024-03-26T09:26:48.950Z,69.31
2024-03-26T09:27:48.940Z,69.71
2024-03-26T09:28:48.961Z,69.38
2024-03-26T09:29:48.947Z,67.43
2024-03-26T09:30:48.903Z,68.55
2024-03-26T09:31:48.915Z,68.84
2024-03-26T09:32:48.904Z,68.22
2024-03-26T09:33:48.898Z,68.32
2024-03-26T09:34:48.894Z,69.24
2024-03-26T09:35:49.038Z,68.32
2024-03-26T09:36:48.876Z,66.89
2024-03-26T09:37:49.718Z,66.96
2024-03-26T09:38:49.871Z,67.78
2024-03-26T09:39:48.833Z,65.60
2024-03-26T09:40:48.796Z,65.09
2024-03-26T09:41:48.825Z,66.21
2024-03-26T09:42:48.797Z,64.48
2024-03-26T09:43:48.751Z,65.16
2024-03-26T09:44:58.392Z,65.98
2024-03-26T09:45:48.751Z,64.45
2024-03-26T09:46:48.742Z,62.99
2024-03-26T09:47:48.723Z,63.09
2024-03-26T09:48:48.704Z,62.68
2024-03-26T09:49:48.702Z,63.09
2024-03-26T09:50:48.687Z,62.85
2024-03-26T09:51:48.677Z,63.67
2024-03-26T09:52:48.675Z,65.20
2024-03-26T09:53:48.674Z,62.93
2024-03-26T09:54:48.652Z,62.32
2024-03-26T09:55:48.648Z,61.60
2024-03-26T09:56:48.598Z,61.71
2024-03-26T09:57:48.626Z,62.82
2024-03-26T09:58:48.598Z,62.90
2024-03-26T09:59:48.606Z,60.14
2024-03-26T10:00:48.571Z,58.82
2024-03-26T10:01:48.597Z,60.76
2024-03-26T10:02:48.530Z,60.35
2024-03-26T10:03:49.916Z,60.35
2024-03-26T10:04:48.542Z,59.91
2024-03-26T10:05:48.546Z,60.73
2024-03-26T10:06:48.510Z,61.65
2024-03-26T10:07:48.513Z,59.30
2024-03-26T10:08:48.500Z,59.81
2024-03-26T10:09:48.486Z,59.30
2024-03-26T10:10:48.458Z,59.68
2024-03-26T10:11:48.451Z,60.50
2024-03-26T10:12:48.431Z,57.34
2024-03-26T10:13:48.424Z,57.34
2024-03-26T10:14:48.416Z,58.23
2024-03-26T10:15:48.419Z,56.81
2024-03-26T10:16:48.402Z,58.44
2024-03-26T10:17:48.396Z,57.21
2024-03-26T10:18:48.372Z,57.31
2024-03-26T10:19:48.368Z,56.40
2024-03-26T10:20:48.376Z,55.58
2024-03-26T10:21:48.351Z,54.85
2024-03-26T10:22:50.927Z,54.64
2024-03-26T10:23:48.294Z,55.46
2024-03-26T10:24:48.324Z,54.85
2024-03-26T10:25:48.295Z,54.03
2024-03-26T10:26:48.286Z,52.91
2024-03-26T10:27:48.248Z,54.31
2024-03-26T10:28:48.283Z,55.94
2024-03-26T10:29:48.239Z,54.11
2024-03-26T10:30:48.248Z,54.82
2024-03-26T10:31:48.227Z,54.11
2024-03-26T10:32:48.193Z,53.59
2024-03-26T10:33:48.222Z,55.12
2024-03-26T10:34:48.202Z,55.91
2024-03-26T10:35:48.198Z,54.18
2024-03-26T10:36:48.172Z,54.69
2024-03-26T10:37:48.162Z,55.00
2024-03-26T10:38:57.259Z,54.05
2024-03-26T10:39:48.162Z,53.75
2024-03-26T10:40:48.142Z,53.04
2024-03-26T10:41:48.123Z,54.16
2024-03-26T10:42:48.098Z,52.35
2024-03-26T10:43:48.072Z,51.23
2024-03-26T10:44:48.088Z,51.64
2024-03-26T10:45:59.999Z,52.45
2024-03-26T10:46:49.395Z,50.62
2024-03-26T10:47:48.049Z,52.12
2024-03-26T10:48:57.220Z,52.03
2024-03-26T10:49:48.018Z,53.52
2024-03-26T10:50:48.033Z,52.00
2024-03-26T10:51:48.012Z,53.32
2024-03-26T10:52:47.965Z,52.10
2024-03-26T10:53:47.986Z,52.40
2024-03-26T10:54:47.969Z,51.18
2024-03-26T10:55:47.951Z,52.20
2024-03-26T10:56:47.933Z,52.51
2024-03-26T10:57:47.936Z,53.32
2024-03-26T10:58:47.912Z,51.09
2024-03-26T10:59:47.907Z,52.28
2024-03-26T11:00:47.894Z,49.54
2024-03-26T11:01:47.882Z,49.74
2024-03-26T11:02:47.890Z,49.44
2024-03-26T11:03:47.854Z,49.11
2024-03-26T11:04:47.840Z,48.80
2024-03-26T11:05:47.853Z,48.80
2024-03-26T11:06:47.841Z,50.43
2024-03-26T11:07:47.818Z,47.56
2024-03-26T11:08:47.820Z,47.67
2024-03-26T11:09:47.764Z,49.19
2024-03-26T11:10:47.775Z,48.88
2024-03-26T11:11:47.776Z,49.29
2024-03-26T11:12:47.763Z,47.97
2024-03-26T11:13:47.772Z,50.08
2024-03-26T11:14:47.782Z,49.77
2024-03-26T11:15:47.752Z,49.06
2024-03-26T11:16:47.718Z,47.64
2024-03-26T11:17:47.708Z,46.53
2024-03-26T11:18:47.667Z,46.75
2024-03-26T11:19:47.704Z,49.19
2024-03-26T11:20:47.746Z,47.97
2024-03-26T11:21:49.559Z,48.48
2024-03-26T11:22:47.652Z,47.75
2024-03-26T11:23:47.644Z,47.54
2024-03-26T11:24:47.697Z,48.86
2024-03-26T11:25:47.623Z,47.11
2024-03-26T11:26:47.609Z,47.31
2024-03-26T11:27:47.626Z,47.11
2024-03-26T11:28:47.571Z,47.22
2024-03-26T11:29:47.552Z,47.92
2024-03-26T11:30:47.533Z,47.92
2024-03-26T11:31:47.538Z,47.62
2024-03-26T11:32:47.530Z,48.41
2024-03-26T11:33:47.541Z,49.83
2024-03-26T11:34:47.538Z,48.82
2024-03-26T11:35:47.511Z,47.70
2024-03-26T11:36:47.497Z,49.93
2024-03-26T11:37:47.546Z,48.71
2024-03-26T11:38:47.487Z,49.60
2024-03-26T11:39:47.465Z,49.80
2024-03-26T11:40:47.460Z,49.10
2024-03-26T11:41:47.451Z,49.70
2024-03-26T11:42:47.420Z,49.93
2024-03-26T11:43:47.420Z,48.61
2024-03-26T11:44:47.399Z,48.11
2024-03-26T11:45:47.394Z,48.51
2024-03-26T11:46:47.391Z,48.82
2024-03-26T11:47:47.359Z,50.54
2024-03-26T11:48:47.350Z,49.32
2024-03-26T11:49:47.348Z,50.82
2024-03-26T11:50:47.335Z,51.62
2024-03-26T11:51:47.320Z,50.31
2024-03-26T11:52:47.310Z,48.39
2024-03-26T11:53:47.316Z,48.18
2024-03-26T11:54:47.316Z,49.90
2024-03-26T11:55:47.279Z,48.39
2024-03-26T11:56:47.262Z,50.01
2024-03-26T11:57:47.254Z,50.59
2024-03-26T11:58:47.234Z,48.16
2024-03-26T11:59:47.223Z,47.45
2024-03-26T12:00:47.205Z,46.84
2024-03-26T12:01:47.216Z,47.74
2024-03-26T12:02:47.212Z,46.72
2024-03-26T12:03:47.174Z,45.81
2024-03-26T12:04:47.162Z,44.29
2024-03-26T12:05:47.162Z,43.46
2024-03-26T12:06:47.139Z,43.38
2024-03-26T12:07:47.126Z,43.79
2024-03-26T12:08:47.133Z,45.41
2024-03-26T12:09:47.095Z,47.23
2024-03-26T12:10:47.096Z,47.13
2024-03-26T12:11:47.110Z,44.40
2024-03-26T12:12:47.039Z,41.97
2024-03-26T12:13:47.059Z,41.97
2024-03-26T12:14:47.040Z,42.88
2024-03-26T12:15:47.046Z,42.98
2024-03-26T12:16:47.039Z,43.08
2024-03-26T12:17:47.074Z,42.17
2024-03-26T12:18:47.021Z,42.17
2024-03-26T12:19:47.014Z,42.07
2024-03-26T12:20:46.998Z,42.47
2024-03-26T12:21:46.992Z,42.37
2024-03-26T12:22:46.989Z,43.08
2024-03-26T12:23:46.959Z,44.48
2024-03-26T12:24:46.973Z,46.70
2024-03-26T12:25:46.938Z,45.89
2024-03-26T12:26:46.927Z,45.89
2024-03-26T12:27:46.929Z,46.50
2024-03-26T12:28:46.909Z,47.81
2024-03-26T12:29:46.901Z,46.80
2024-03-26T12:30:46.907Z,46.20
2024-03-26T12:31:46.889Z,45.39
2024-03-26T12:32:46.887Z,44.37
2024-03-26T12:33:47.868Z,45.29
2024-03-26T12:34:46.837Z,44.46
2024-03-26T12:35:46.842Z,45.57
2024-03-26T12:36:46.831Z,43.75
2024-03-26T12:37:46.812Z,44.66
2024-03-26T12:38:46.803Z,45.16
2024-03-26T12:39:46.775Z,45.26
2024-03-26T12:40:46.772Z,44.66
2024-03-26T12:41:46.762Z,44.76
2024-03-26T12:42:46.754Z,45.26
2024-03-26T12:43:46.750Z,46.78
2024-03-26T12:44:46.728Z,46.07
2024-03-26T12:45:46.692Z,47.39
2024-03-26T12:46:46.693Z,47.16
2024-03-26T12:47:46.672Z,47.67
2024-03-26T12:48:46.666Z,47.56
2024-03-26T12:49:46.678Z,47.67
2024-03-26T12:50:46.662Z,47.36
2024-03-26T12:51:46.626Z,47.16
2024-03-26T12:52:46.621Z,48.45
2024-03-26T12:53:46.624Z,46.43